sensor_id;sensor_type;location;lat;lon;timestamp;pressure;altitude;pressure_sealevel;temperature;humidity
61554;BME280;47425;51.976;5.326;2024-01-15T00:01:13;100186.47;;;10.66;52.41
61554;BME280;47425;51.976;5.326;2024-01-15T00:03:41;100198.94;;;10.58;51.42
61554;BME280;47425;51.976;5.326;2024-01-15T00:06:07;100191.72;;;10.65;52.06
61554;BME280;47425;51.976;5.326;2024-01-15T00:08:34;100190.66;;;10.72;51.43
61554;BME280;47425;51.976;5.326;2024-01-15T00:11:02;100187.22;;;10.70;50.97
61554;BME280;47425;51.976;5.326;2024-01-15T00:13:28;100180.09;;;10.47;52.59
61554;BME280;47425;51.976;5.326;2024-01-15T00:15:55;100181.75;;;10.49;52.38
61554;BME280;47425;51.976;5.326;2024-01-15T00:18:22;100181.25;;;10.65;50.50
61554;BME280;47425;51.976;5.326;2024-01-15T00:20:50;100174.34;;;10.62;52.24
61554;BME280;47425;51.976;5.326;2024-01-15T00:23:18;100179.28;;;10.73;51.45
61554;BME280;47425;51.976;5.326;2024-01-15T00:25:44;100160.63;;;10.55;51.32
61554;BME280;47425;51.976;5.326;2024-01-15T00:28:11;100171.06;;;10.57;51.88
61554;BME280;47425;51.976;5.326;2024-01-15T00:30:38;100163.88;;;10.64;51.63
61554;BME280;47425;51.976;5.326;2024-01-15T00:33:04;100166.50;;;10.62;52.31
61554;BME280;47425;51.976;5.326;2024-01-15T00:35:32;100167.41;;;10.89;51.88
61554;BME280;47425;51.976;5.326;2024-01-15T00:38:00;100162.22;;;11.13;51.81
61554;BME280;47425;51.976;5.326;2024-01-15T00:40:27;100158.66;;;11.16;50.89
61554;BME280;47425;51.976;5.326;2024-01-15T00:42:54;100156.34;;;11.06;51.32
61554;BME280;47425;51.976;5.326;2024-01-15T00:45:20;100147.09;;;10.96;51.23
61554;BME280;47425;51.976;5.326;2024-01-15T00:47:48;100140.91;;;10.99;51.27
61554;BME280;47425;51.976;5.326;2024-01-15T00:50:15;100133.47;;;11.12;51.18
61554;BME280;47425;51.976;5.326;2024-01-15T00:52:42;100122.91;;;11.15;50.55
61554;BME280;47425;51.976;5.326;2024-01-15T00:55:10;100128.13;;;11.40;51.50
61554;BME280;47425;51.976;5.326;2024-01-15T00:57:37;100122.84;;;11.41;50.06
61554;BME280;47425;51.976;5.326;2024-01-15T01:00:05;100123.91;;;11.36;49.73
61554;BME280;47425;51.976;5.326;2024-01-15T01:02:33;100128.28;;;11.35;50.76
61554;BME280;47425;51.976;5.326;2024-01-15T01:04:59;100136.03;;;11.38;50.73
61554;BME280;47425;51.976;5.326;2024-01-15T01:07:26;100127.72;;;11.27;50.52
61554;BME280;47425;51.976;5.326;2024-01-15T01:09:53;100128.66;;;10.99;50.90
61554;BME280;47425;51.976;5.326;2024-01-15T01:12:21;100122.81;;;10.64;49.62
61554;BME280;47425;51.976;5.326;2024-01-15T01:14:49;100124.22;;;10.48;52.02
61554;BME280;47425;51.976;5.326;2024-01-15T01:17:15;100128.00;;;10.66;52.01
61554;BME280;47425;51.976;5.326;2024-01-15T01:19:42;100129.97;;;10.86;51.87
61554;BME280;47425;51.976;5.326;2024-01-15T01:22:09;100125.63;;;10.85;51.25
61554;BME280;47425;51.976;5.326;2024-01-15T01:24:36;100132.56;;;11.13;51.61
61554;BME280;47425;51.976;5.326;2024-01-15T01:27:24;100122.72;;;11.45;51.37
61554;BME280;47425;51.976;5.326;2024-01-15T01:29:51;100124.84;;;11.58;50.62
61554;BME280;47425;51.976;5.326;2024-01-15T01:32:18;100122.00;;;11.65;50.35
61554;BME280;47425;51.976;5.326;2024-01-15T01:34:45;100129.75;;;11.68;50.26
61554;BME280;47425;51.976;5.326;2024-01-15T01:37:11;100117.47;;;11.70;50.28
61554;BME280;47425;51.976;5.326;2024-01-15T01:39:38;100126.53;;;11.85;50.31
61554;BME280;47425;51.976;5.326;2024-01-15T01:42:06;100125.25;;;11.97;47.99
61554;BME280;47425;51.976;5.326;2024-01-15T01:44:34;100097.25;;;11.48;49.53
61554;BME280;47425;51.976;5.326;2024-01-15T01:47:01;100119.78;;;11.54;49.75
61554;BME280;47425;51.976;5.326;2024-01-15T01:49:28;100123.91;;;11.36;47.93
61554;BME280;47425;51.976;5.326;2024-01-15T01:51:57;100115.72;;;11.20;48.85
61554;BME280;47425;51.976;5.326;2024-01-15T01:54:26;100126.13;;;10.96;49.24
61554;BME280;47425;51.976;5.326;2024-01-15T01:56:53;100123.66;;;10.91;50.86
61554;BME280;47425;51.976;5.326;2024-01-15T01:59:20;100128.25;;;10.85;49.56
61554;BME280;47425;51.976;5.326;2024-01-15T02:01:49;100136.66;;;10.68;51.04
61554;BME280;47425;51.976;5.326;2024-01-15T02:04:17;100126.28;;;10.65;49.43
61554;BME280;47425;51.976;5.326;2024-01-15T02:06:43;100124.78;;;10.57;50.24
61554;BME280;47425;51.976;5.326;2024-01-15T02:09:11;100126.66;;;10.24;48.79
61554;BME280;47425;51.976;5.326;2024-01-15T02:11:40;100125.31;;;10.11;51.91
61554;BME280;47425;51.976;5.326;2024-01-15T02:14:07;100121.97;;;10.35;50.07
61554;BME280;47425;51.976;5.326;2024-01-15T02:16:35;100117.75;;;10.30;50.59
61554;BME280;47425;51.976;5.326;2024-01-15T02:19:03;100116.28;;;10.21;52.13
61554;BME280;47425;51.976;5.326;2024-01-15T02:21:31;100106.19;;;10.08;51.14
61554;BME280;47425;51.976;5.326;2024-01-15T02:23:59;100116.88;;;10.01;51.25
61554;BME280;47425;51.976;5.326;2024-01-15T02:26:26;100113.75;;;9.88;52.52
61554;BME280;47425;51.976;5.326;2024-01-15T02:28:53;100115.16;;;10.00;52.77
61554;BME280;47425;51.976;5.326;2024-01-15T02:31:19;100107.69;;;9.87;51.43
61554;BME280;47425;51.976;5.326;2024-01-15T02:33:47;100111.66;;;9.71;53.19
61554;BME280;47425;51.976;5.326;2024-01-15T02:36:15;100110.19;;;9.90;51.22
61554;BME280;47425;51.976;5.326;2024-01-15T02:38:42;100118.72;;;9.97;49.68
61554;BME280;47425;51.976;5.326;2024-01-15T02:41:10;100121.63;;;9.56;49.79
61554;BME280;47425;51.976;5.326;2024-01-15T02:43:39;100119.59;;;9.02;48.41
61554;BME280;47425;51.976;5.326;2024-01-15T02:46:07;100114.53;;;8.60;53.50
61554;BME280;47425;51.976;5.326;2024-01-15T02:48:34;100120.00;;;9.19;54.70
61554;BME280;47425;51.976;5.326;2024-01-15T02:51:01;100124.53;;;9.77;53.98
61554;BME280;47425;51.976;5.326;2024-01-15T02:53:28;100125.81;;;10.23;53.39
61554;BME280;47425;51.976;5.326;2024-01-15T02:55:54;100121.19;;;10.60;52.80
61554;BME280;47425;51.976;5.326;2024-01-15T02:58:22;100122.75;;;10.93;51.63
61554;BME280;47425;51.976;5.326;2024-01-15T03:00:50;100096.50;;;10.94;50.77
61554;BME280;47425;51.976;5.326;2024-01-15T03:03:17;100131.28;;;11.24;49.81
61554;BME280;47425;51.976;5.326;2024-01-15T03:05:43;100131.22;;;11.26;49.88
61554;BME280;47425;51.976;5.326;2024-01-15T03:08:10;100127.81;;;11.24;49.45
61554;BME280;47425;51.976;5.326;2024-01-15T03:10:37;100122.78;;;11.18;49.92
61554;BME280;47425;51.976;5.326;2024-01-15T03:13:04;100121.88;;;11.19;50.63
61554;BME280;47425;51.976;5.326;2024-01-15T03:15:32;100114.41;;;11.06;50.91
61554;BME280;47425;51.976;5.326;2024-01-15T03:17:59;100096.00;;;11.10;51.09
61554;BME280;47425;51.976;5.326;2024-01-15T03:20:26;100092.09;;;11.21;51.05
61554;BME280;47425;51.976;5.326;2024-01-15T03:22:53;100089.19;;;11.29;50.91
61554;BME280;47425;51.976;5.326;2024-01-15T03:25:20;100104.16;;;11.51;49.34
61554;BME280;47425;51.976;5.326;2024-01-15T03:27:47;100098.94;;;11.25;49.77
61554;BME280;47425;51.976;5.326;2024-01-15T03:30:14;100102.06;;;11.10;49.76
61554;BME280;47425;51.976;5.326;2024-01-15T03:32:42;100100.66;;;11.01;48.32
61554;BME280;47425;51.976;5.326;2024-01-15T03:35:09;100084.78;;;10.52;48.43
61554;BME280;47425;51.976;5.326;2024-01-15T03:37:36;100100.19;;;10.33;50.25
61554;BME280;47425;51.976;5.326;2024-01-15T03:40:04;100099.81;;;10.17;50.76
61554;BME280;47425;51.976;5.326;2024-01-15T03:42:31;100109.16;;;10.26;51.44
61554;BME280;47425;51.976;5.326;2024-01-15T03:44:57;100093.03;;;10.40;51.91
61554;BME280;47425;51.976;5.326;2024-01-15T03:47:24;100097.44;;;10.66;52.19
61554;BME280;47425;51.976;5.326;2024-01-15T03:49:53;100089.72;;;11.14;51.25
61554;BME280;47425;51.976;5.326;2024-01-15T03:52:20;100090.03;;;11.55;50.90
61554;BME280;47425;51.976;5.326;2024-01-15T03:55:06;100092.06;;;11.70;50.14
61554;BME280;47425;51.976;5.326;2024-01-15T03:57:33;100095.50;;;11.72;50.30
61554;BME280;47425;51.976;5.326;2024-01-15T04:00:00;100096.44;;;11.93;50.27
61554;BME280;47425;51.976;5.326;2024-01-15T04:02:26;100098.88;;;12.22;49.64
61554;BME280;47425;51.976;5.326;2024-01-15T04:04:56;100084.06;;;12.43;49.14
61554;BME280;47425;51.976;5.326;2024-01-15T04:07:22;100079.25;;;12.54;48.87
61554;BME280;47425;51.976;5.326;2024-01-15T04:09:49;100076.41;;;12.59;48.55
61554;BME280;47425;51.976;5.326;2024-01-15T04:12:15;100093.66;;;12.44;48.34
61554;BME280;47425;51.976;5.326;2024-01-15T04:14:42;100083.69;;;12.08;47.41
61554;BME280;47425;51.976;5.326;2024-01-15T04:17:10;100089.84;;;11.83;49.15
61554;BME280;47425;51.976;5.326;2024-01-15T04:19:36;100084.41;;;11.88;49.41
61554;BME280;47425;51.976;5.326;2024-01-15T04:22:05;100085.72;;;11.76;48.85
61554;BME280;47425;51.976;5.326;2024-01-15T04:24:31;100080.31;;;11.57;48.13
61554;BME280;47425;51.976;5.326;2024-01-15T04:26:58;100075.88;;;11.10;49.46
61554;BME280;47425;51.976;5.326;2024-01-15T04:29:26;100073.22;;;10.86;50.10
61554;BME280;47425;51.976;5.326;2024-01-15T04:31:52;100058.06;;;10.43;49.33
61554;BME280;47425;51.976;5.326;2024-01-15T04:34:22;100058.75;;;10.19;51.24
61554;BME280;47425;51.976;5.326;2024-01-15T04:36:49;100057.00;;;10.20;52.33
61554;BME280;47425;51.976;5.326;2024-01-15T04:39:17;100049.31;;;10.15;52.26
61554;BME280;47425;51.976;5.326;2024-01-15T04:41:45;100055.16;;;10.23;52.78
61554;BME280;47425;51.976;5.326;2024-01-15T04:44:11;100046.94;;;10.34;52.03
61554;BME280;47425;51.976;5.326;2024-01-15T04:46:38;100031.69;;;10.49;52.72
61554;BME280;47425;51.976;5.326;2024-01-15T04:49:05;100042.38;;;10.95;52.12
61554;BME280;47425;51.976;5.326;2024-01-15T04:51:31;100041.34;;;11.24;51.85
61554;BME280;47425;51.976;5.326;2024-01-15T04:53:59;100040.09;;;11.58;50.92
61554;BME280;47425;51.976;5.326;2024-01-15T04:56:27;100029.00;;;11.73;50.54
61554;BME280;47425;51.976;5.326;2024-01-15T04:58:53;100031.59;;;11.75;49.78
61554;BME280;47425;51.976;5.326;2024-01-15T05:01:20;100022.56;;;11.82;49.32
61554;BME280;47425;51.976;5.326;2024-01-15T05:03:47;100024.44;;;11.79;49.93
61554;BME280;47425;51.976;5.326;2024-01-15T05:06:14;100018.00;;;11.64;49.87
61554;BME280;47425;51.976;5.326;2024-01-15T05:08:42;100021.84;;;11.55;49.81
61554;BME280;47425;51.976;5.326;2024-01-15T05:11:09;100031.53;;;11.53;49.91
61554;BME280;47425;51.976;5.326;2024-01-15T05:13:37;100028.50;;;11.16;49.86
61554;BME280;47425;51.976;5.326;2024-01-15T05:16:04;100046.84;;;10.91;50.82
61554;BME280;47425;51.976;5.326;2024-01-15T05:18:31;100038.66;;;10.48;48.43
61554;BME280;47425;51.976;5.326;2024-01-15T05:20:59;100041.00;;;10.29;52.00
61554;BME280;47425;51.976;5.326;2024-01-15T05:23:25;100032.19;;;10.32;52.20
61554;BME280;47425;51.976;5.326;2024-01-15T05:25:52;100034.94;;;10.27;52.74
61554;BME280;47425;51.976;5.326;2024-01-15T05:28:19;100023.94;;;10.71;52.68
61554;BME280;47425;51.976;5.326;2024-01-15T05:30:47;100010.53;;;10.80;51.72
61554;BME280;47425;51.976;5.326;2024-01-15T05:33:14;100017.75;;;10.73;50.67
61554;BME280;47425;51.976;5.326;2024-01-15T05:35:41;100019.03;;;10.62;51.47
61554;BME280;47425;51.976;5.326;2024-01-15T05:38:08;100006.78;;;10.62;51.11
61554;BME280;47425;51.976;5.326;2024-01-15T05:40:34;100017.56;;;10.80;52.11
61554;BME280;47425;51.976;5.326;2024-01-15T05:43:01;100019.16;;;10.84;48.83
61554;BME280;47425;51.976;5.326;2024-01-15T05:45:30;100003.16;;;10.41;51.44
61554;BME280;47425;51.976;5.326;2024-01-15T05:47:58;100016.78;;;10.51;52.63
61554;BME280;47425;51.976;5.326;2024-01-15T05:50:24;100012.09;;;10.86;51.98
61554;BME280;47425;51.976;5.326;2024-01-15T05:52:51;99994.06;;;11.02;51.24
61554;BME280;47425;51.976;5.326;2024-01-15T05:55:18;100011.41;;;11.30;51.66
61554;BME280;47425;51.976;5.326;2024-01-15T05:57:45;100017.91;;;11.19;51.59
61554;BME280;47425;51.976;5.326;2024-01-15T06:00:13;100009.69;;;11.29;51.50
61554;BME280;47425;51.976;5.326;2024-01-15T06:02:40;100011.28;;;11.33;50.47
61554;BME280;47425;51.976;5.326;2024-01-15T06:05:08;100020.59;;;11.41;51.38
61554;BME280;47425;51.976;5.326;2024-01-15T06:07:35;100014.41;;;11.42;51.29
61554;BME280;47425;51.976;5.326;2024-01-15T06:10:02;100011.09;;;11.61;50.53
61554;BME280;47425;51.976;5.326;2024-01-15T06:12:30;100010.63;;;11.73;51.02
61554;BME280;47425;51.976;5.326;2024-01-15T06:14:57;100001.44;;;11.85;50.61
61554;BME280;47425;51.976;5.326;2024-01-15T06:17:24;100011.88;;;11.87;50.23
61554;BME280;47425;51.976;5.326;2024-01-15T06:19:50;100014.63;;;11.84;50.42
61554;BME280;47425;51.976;5.326;2024-01-15T06:22:19;100004.34;;;11.78;50.74
61554;BME280;47425;51.976;5.326;2024-01-15T06:24:46;100011.69;;;11.91;50.10
61554;BME280;47425;51.976;5.326;2024-01-15T06:27:13;100003.28;;;11.83;50.24
61554;BME280;47425;51.976;5.326;2024-01-15T06:29:45;100002.97;;;11.69;50.16
61554;BME280;47425;51.976;5.326;2024-01-15T06:32:12;99990.47;;;11.75;49.82
61554;BME280;47425;51.976;5.326;2024-01-15T06:34:39;99991.72;;;11.65;49.06
61554;BME280;47425;51.976;5.326;2024-01-15T06:37:07;100004.22;;;11.58;50.02
61554;BME280;47425;51.976;5.326;2024-01-15T06:39:35;100005.38;;;11.51;49.76
61554;BME280;47425;51.976;5.326;2024-01-15T06:42:02;99997.22;;;11.35;49.13
61554;BME280;47425;51.976;5.326;2024-01-15T06:44:29;100001.00;;;11.28;50.02
61554;BME280;47425;51.976;5.326;2024-01-15T06:46:56;99995.69;;;11.30;51.23
61554;BME280;47425;51.976;5.326;2024-01-15T06:49:27;99990.94;;;11.63;51.21
61554;BME280;47425;51.976;5.326;2024-01-15T06:51:55;100009.50;;;11.81;48.49
61554;BME280;47425;51.976;5.326;2024-01-15T06:54:22;100012.94;;;11.35;49.32
61554;BME280;47425;51.976;5.326;2024-01-15T06:56:50;100026.25;;;9.70;47.00
61554;BME280;47425;51.976;5.326;2024-01-15T06:59:17;100041.31;;;8.28;49.50
61554;BME280;47425;51.976;5.326;2024-01-15T07:01:44;100029.41;;;7.38;53.22
61554;BME280;47425;51.976;5.326;2024-01-15T07:04:12;100012.25;;;7.26;54.35
61554;BME280;47425;51.976;5.326;2024-01-15T07:06:38;99994.72;;;7.77;57.83
61554;BME280;47425;51.976;5.326;2024-01-15T07:09:05;100000.41;;;8.30;57.54
61554;BME280;47425;51.976;5.326;2024-01-15T07:11:33;99998.59;;;8.68;57.08
61554;BME280;47425;51.976;5.326;2024-01-15T07:14:01;100001.66;;;8.84;53.75
61554;BME280;47425;51.976;5.326;2024-01-15T07:16:30;100004.41;;;8.45;55.84
61554;BME280;47425;51.976;5.326;2024-01-15T07:18:56;100004.09;;;8.57;56.34
61554;BME280;47425;51.976;5.326;2024-01-15T07:21:23;100024.78;;;8.98;56.98
61554;BME280;47425;51.976;5.326;2024-01-15T07:23:50;100026.53;;;9.29;54.35
61554;BME280;47425;51.976;5.326;2024-01-15T07:26:16;100024.03;;;9.26;55.39
61554;BME280;47425;51.976;5.326;2024-01-15T07:28:44;100023.81;;;9.34;55.55
61554;BME280;47425;51.976;5.326;2024-01-15T07:31:12;100024.81;;;9.30;53.95
61554;BME280;47425;51.976;5.326;2024-01-15T07:33:39;100038.81;;;9.27;53.26
61554;BME280;47425;51.976;5.326;2024-01-15T07:36:06;100025.31;;;9.11;54.80
61554;BME280;47425;51.976;5.326;2024-01-15T07:38:34;100026.59;;;9.28;54.56
61554;BME280;47425;51.976;5.326;2024-01-15T07:41:01;100032.28;;;9.42;54.93
61554;BME280;47425;51.976;5.326;2024-01-15T07:43:27;100030.56;;;9.41;54.21
61554;BME280;47425;51.976;5.326;2024-01-15T07:45:55;100046.88;;;9.51;54.99
61554;BME280;47425;51.976;5.326;2024-01-15T07:48:24;100025.44;;;9.38;52.62
61554;BME280;47425;51.976;5.326;2024-01-15T07:50:50;100040.19;;;9.09;54.63
61554;BME280;47425;51.976;5.326;2024-01-15T07:53:18;100026.44;;;9.02;56.19
61554;BME280;47425;51.976;5.326;2024-01-15T07:55:45;100013.91;;;9.45;56.00
61554;BME280;47425;51.976;5.326;2024-01-15T07:58:12;100023.88;;;9.90;53.96
61554;BME280;47425;51.976;5.326;2024-01-15T08:00:39;100031.59;;;10.23;52.36
61554;BME280;47425;51.976;5.326;2024-01-15T08:03:05;100026.28;;;9.98;50.19
61554;BME280;47425;51.976;5.326;2024-01-15T08:05:34;100031.06;;;9.84;53.69
61554;BME280;47425;51.976;5.326;2024-01-15T08:08:01;100034.25;;;9.94;53.22
61554;BME280;47425;51.976;5.326;2024-01-15T08:10:28;100039.78;;;10.13;53.63
61554;BME280;47425;51.976;5.326;2024-01-15T08:12:54;100018.28;;;10.03;52.97
61554;BME280;47425;51.976;5.326;2024-01-15T08:15:21;100021.22;;;10.20;53.54
61554;BME280;47425;51.976;5.326;2024-01-15T08:17:49;100013.75;;;10.36;53.09
61554;BME280;47425;51.976;5.326;2024-01-15T08:20:16;100013.69;;;10.38;52.07
61554;BME280;47425;51.976;5.326;2024-01-15T08:22:43;100016.22;;;10.41;53.64
61554;BME280;47425;51.976;5.326;2024-01-15T08:25:10;100023.41;;;10.61;52.09
61554;BME280;47425;51.976;5.326;2024-01-15T08:27:39;100023.72;;;10.52;51.43
61554;BME280;47425;51.976;5.326;2024-01-15T08:30:07;100019.03;;;10.06;52.20
61554;BME280;47425;51.976;5.326;2024-01-15T08:32:34;100020.16;;;9.99;51.51
61554;BME280;47425;51.976;5.326;2024-01-15T08:35:02;100025.72;;;9.87;52.75
61554;BME280;47425;51.976;5.326;2024-01-15T08:37:29;100019.88;;;9.79;53.59
61554;BME280;47425;51.976;5.326;2024-01-15T08:39:57;100018.66;;;9.90;53.36
61554;BME280;47425;51.976;5.326;2024-01-15T08:42:25;100022.97;;;10.20;52.78
61554;BME280;47425;51.976;5.326;2024-01-15T08:44:52;100029.94;;;9.93;52.83
61554;BME280;47425;51.976;5.326;2024-01-15T08:47:18;100041.34;;;9.90;54.03
61554;BME280;47425;51.976;5.326;2024-01-15T08:49:45;100049.75;;;10.00;52.64
61554;BME280;47425;51.976;5.326;2024-01-15T08:52:12;100050.09;;;9.89;54.14
61554;BME280;47425;51.976;5.326;2024-01-15T08:54:40;100037.97;;;9.86;53.68
61554;BME280;47425;51.976;5.326;2024-01-15T08:57:08;100043.91;;;9.91;53.88
61554;BME280;47425;51.976;5.326;2024-01-15T08:59:37;100040.44;;;10.19;54.11
61554;BME280;47425;51.976;5.326;2024-01-15T09:02:04;100045.03;;;10.41;52.57
61554;BME280;47425;51.976;5.326;2024-01-15T09:04:31;100044.06;;;10.44;51.81
61554;BME280;47425;51.976;5.326;2024-01-15T09:06:59;100042.63;;;10.33;53.27
61554;BME280;47425;51.976;5.326;2024-01-15T09:09:25;100055.28;;;10.47;51.88
61554;BME280;47425;51.976;5.326;2024-01-15T09:11:52;100039.22;;;10.30;51.74
61554;BME280;47425;51.976;5.326;2024-01-15T09:14:20;100059.84;;;10.40;52.26
61554;BME280;47425;51.976;5.326;2024-01-15T09:16:47;100049.25;;;10.45;51.30
61554;BME280;47425;51.976;5.326;2024-01-15T09:19:15;100058.25;;;10.36;50.30
61554;BME280;47425;51.976;5.326;2024-01-15T09:21:42;100075.25;;;9.93;52.85
61554;BME280;47425;51.976;5.326;2024-01-15T09:24:08;100073.50;;;9.64;51.87
61554;BME280;47425;51.976;5.326;2024-01-15T09:26:35;100071.38;;;9.47;52.51
61554;BME280;47425;51.976;5.326;2024-01-15T09:29:03;100068.19;;;9.35;54.07
61554;BME280;47425;51.976;5.326;2024-01-15T09:31:31;100055.66;;;9.78;53.33
61554;BME280;47425;51.976;5.326;2024-01-15T09:33:57;100065.56;;;9.97;52.63
61554;BME280;47425;51.976;5.326;2024-01-15T09:36:25;100058.94;;;10.13;53.00
61554;BME280;47425;51.976;5.326;2024-01-15T09:38:52;100051.88;;;10.45;53.17
61554;BME280;47425;51.976;5.326;2024-01-15T09:41:19;100060.44;;;10.75;52.20
61554;BME280;47425;51.976;5.326;2024-01-15T09:43:47;100061.84;;;10.86;51.37
61554;BME280;47425;51.976;5.326;2024-01-15T09:46:15;100057.91;;;10.99;50.43
61554;BME280;47425;51.976;5.326;2024-01-15T09:48:44;100067.78;;;10.91;51.88
61554;BME280;47425;51.976;5.326;2024-01-15T09:51:10;100061.09;;;11.07;51.22
61554;BME280;47425;51.976;5.326;2024-01-15T09:53:39;100069.97;;;11.29;51.72
61554;BME280;47425;51.976;5.326;2024-01-15T09:56:07;100069.56;;;11.16;51.02
61554;BME280;47425;51.976;5.326;2024-01-15T09:58:35;100059.22;;;11.36;51.46
61554;BME280;47425;51.976;5.326;2024-01-15T10:01:02;100042.38;;;11.67;50.92
61554;BME280;47425;51.976;5.326;2024-01-15T10:03:29;100050.22;;;11.67;48.60
61554;BME280;47425;51.976;5.326;2024-01-15T10:05:59;100049.25;;;11.46;49.79
61554;BME280;47425;51.976;5.326;2024-01-15T10:08:27;100041.22;;;11.51;50.28
61554;BME280;47425;51.976;5.326;2024-01-15T10:10:54;100045.25;;;11.36;49.81
61554;BME280;47425;51.976;5.326;2024-01-15T10:13:22;100043.50;;;11.36;50.63
61554;BME280;47425;51.976;5.326;2024-01-15T10:15:48;100049.69;;;11.57;49.32
61554;BME280;47425;51.976;5.326;2024-01-15T10:18:15;100045.88;;;11.42;48.64
61554;BME280;47425;51.976;5.326;2024-01-15T10:20:43;100042.81;;;11.06;50.32
61554;BME280;47425;51.976;5.326;2024-01-15T10:23:14;100040.00;;;10.87;49.40
61554;BME280;47425;51.976;5.326;2024-01-15T10:25:41;100047.53;;;10.71;49.10
61554;BME280;47425;51.976;5.326;2024-01-15T10:28:08;100045.28;;;10.85;50.25
61554;BME280;47425;51.976;5.326;2024-01-15T10:30:35;100052.59;;;11.01;51.36
61554;BME280;47425;51.976;5.326;2024-01-15T10:33:04;100048.66;;;11.14;50.06
61554;BME280;47425;51.976;5.326;2024-01-15T10:35:31;100043.16;;;10.97;50.19
61554;BME280;47425;51.976;5.326;2024-01-15T10:37:58;100041.75;;;10.61;50.27
61554;BME280;47425;51.976;5.326;2024-01-15T10:40:26;100047.81;;;10.35;51.52
61554;BME280;47425;51.976;5.326;2024-01-15T10:42:53;100036.28;;;10.67;52.44
61554;BME280;47425;51.976;5.326;2024-01-15T10:45:21;100042.19;;;10.99;49.79
61554;BME280;47425;51.976;5.326;2024-01-15T10:47:48;100035.66;;;10.86;50.75
61554;BME280;47425;51.976;5.326;2024-01-15T10:50:15;100055.34;;;10.98;51.31
61554;BME280;47425;51.976;5.326;2024-01-15T10:52:42;100064.66;;;10.81;51.25
61554;BME280;47425;51.976;5.326;2024-01-15T10:55:10;100061.00;;;10.85;51.75
61554;BME280;47425;51.976;5.326;2024-01-15T10:57:38;100054.47;;;10.72;50.33
61554;BME280;47425;51.976;5.326;2024-01-15T11:00:06;100050.13;;;10.71;48.90
61554;BME280;47425;51.976;5.326;2024-01-15T11:02:36;100051.16;;;10.40;50.00
61554;BME280;47425;51.976;5.326;2024-01-15T11:05:03;100058.50;;;10.27;51.43
61554;BME280;47425;51.976;5.326;2024-01-15T11:07:30;100060.44;;;10.22;50.32
61554;BME280;47425;51.976;5.326;2024-01-15T11:09:57;100055.03;;;10.27;51.99
61554;BME280;47425;51.976;5.326;2024-01-15T11:12:25;100058.72;;;10.49;51.11
61554;BME280;47425;51.976;5.326;2024-01-15T11:15:01;100066.38;;;10.81;50.72
61554;BME280;47425;51.976;5.326;2024-01-15T11:17:58;100070.66;;;10.83;51.41
61554;BME280;47425;51.976;5.326;2024-01-15T11:20:26;100078.38;;;11.13;50.77
61554;BME280;47425;51.976;5.326;2024-01-15T11:22:53;100073.84;;;11.18;51.02
61554;BME280;47425;51.976;5.326;2024-01-15T11:25:23;100075.44;;;11.22;48.91
61554;BME280;47425;51.976;5.326;2024-01-15T11:27:51;100083.31;;;10.97;50.48
61554;BME280;47425;51.976;5.326;2024-01-15T11:30:24;100079.28;;;10.87;50.68
61554;BME280;47425;51.976;5.326;2024-01-15T11:32:51;100075.13;;;10.54;51.34
61554;BME280;47425;51.976;5.326;2024-01-15T11:35:18;100076.56;;;10.36;49.73
61554;BME280;47425;51.976;5.326;2024-01-15T11:37:58;100076.81;;;9.99;49.68
61554;BME280;47425;51.976;5.326;2024-01-15T11:40:39;100081.53;;;9.87;51.23
61554;BME280;47425;51.976;5.326;2024-01-15T11:43:09;100081.81;;;9.78;53.30
61554;BME280;47425;51.976;5.326;2024-01-15T11:45:37;100086.25;;;10.04;52.85
61554;BME280;47425;51.976;5.326;2024-01-15T11:48:12;100095.25;;;10.24;52.19
61554;BME280;47425;51.976;5.326;2024-01-15T11:50:41;100090.97;;;10.50;52.66
61554;BME280;47425;51.976;5.326;2024-01-15T11:53:15;100101.09;;;10.61;52.17
61554;BME280;47425;51.976;5.326;2024-01-15T11:55:45;100106.91;;;10.70;51.78
61554;BME280;47425;51.976;5.326;2024-01-15T11:58:14;100091.44;;;10.89;51.07
61554;BME280;47425;51.976;5.326;2024-01-15T12:00:45;100087.09;;;10.88;51.63
61554;BME280;47425;51.976;5.326;2024-01-15T12:03:14;100086.31;;;10.86;51.72
61554;BME280;47425;51.976;5.326;2024-01-15T12:05:42;100094.38;;;11.05;51.38
61554;BME280;47425;51.976;5.326;2024-01-15T12:08:08;100096.38;;;10.99;51.00
61554;BME280;47425;51.976;5.326;2024-01-15T12:10:37;100095.41;;;11.01;51.48
61554;BME280;47425;51.976;5.326;2024-01-15T12:13:10;100093.06;;;11.19;50.82
61554;BME280;47425;51.976;5.326;2024-01-15T12:15:37;100099.94;;;11.21;50.78
61554;BME280;47425;51.976;5.326;2024-01-15T12:18:08;100099.63;;;11.31;50.81
61554;BME280;47425;51.976;5.326;2024-01-15T12:20:37;100106.75;;;11.27;50.83
61554;BME280;47425;51.976;5.326;2024-01-15T12:23:04;100109.19;;;11.32;50.70
61554;BME280;47425;51.976;5.326;2024-01-15T12:25:31;100109.22;;;11.05;50.79
61554;BME280;47425;51.976;5.326;2024-01-15T12:27:58;100110.47;;;11.20;50.75
61554;BME280;47425;51.976;5.326;2024-01-15T12:30:28;100110.53;;;11.18;49.91
61554;BME280;47425;51.976;5.326;2024-01-15T12:32:58;100105.72;;;11.06;49.35
61554;BME280;47425;51.976;5.326;2024-01-15T12:35:30;100101.31;;;11.06;49.53
61554;BME280;47425;51.976;5.326;2024-01-15T12:37:57;100103.91;;;11.08;51.12
61554;BME280;47425;51.976;5.326;2024-01-15T12:40:23;100108.78;;;11.19;50.47
61554;BME280;47425;51.976;5.326;2024-01-15T12:42:50;100103.72;;;11.13;49.24
61554;BME280;47425;51.976;5.326;2024-01-15T12:45:19;100097.53;;;11.15;49.71
61554;BME280;47425;51.976;5.326;2024-01-15T12:47:46;100099.19;;;11.18;50.03
61554;BME280;47425;51.976;5.326;2024-01-15T12:50:13;100096.25;;;11.02;50.40
61554;BME280;47425;51.976;5.326;2024-01-15T12:52:41;100104.81;;;11.07;50.00
61554;BME280;47425;51.976;5.326;2024-01-15T12:55:09;100092.22;;;10.91;50.74